Time;durP1;ratioP1;P1;durP2;ratioP2;P2;SDS_P1;SDS_P2;PMS_P1;PMS_P2;Temp;Humidity;BMP_temperature;BMP_pressure;BME280_temperature;BME280_humidity;BME280_pressure;Samples;Min_cycle;Max_cycle;Signal;HPM_P1;HPM_P2
2023/05/25 00:00:24;;;;;;;0.20;0.20;;;9.90;99.90;;;;;;5115190;27;20051;-75
2023/05/25 00:02:53;;;;;;;0.22;0.22;;;9.60;99.90;;;;;;5133203;27;20115;-75
2023/05/25 00:05:19;;;;;;;1.55;1.08;;;10.50;99.90;;;;;;5133377;27;20100;-76
2023/05/25 00:07:45;;;;;;;0.43;0.43;;;9.90;99.90;;;;;;5133223;27;20073;-75
2023/05/25 00:10:11;;;;;;;0.30;0.30;;;9.90;99.90;;;;;;5115167;27;20039;-75
2023/05/25 00:12:37;;;;;;;0.40;0.40;;;9.40;99.90;;;;;;5115092;27;20414;-75
2023/05/25 00:15:05;;;;;;;0.30;0.30;;;10.60;99.90;;;;;;5133447;27;20047;-75
2023/05/25 00:17:31;;;;;;;0.40;0.40;;;9.50;99.90;;;;;;5098179;27;20121;-76
2023/05/25 00:20:01;;;;;;;0.28;0.28;;;10.20;99.90;;;;;;5133149;27;20122;-75
2023/05/25 00:22:27;;;;;;;1.13;0.95;;;9.90;99.90;;;;;;5133076;27;20043;-76
2023/05/25 00:24:53;;;;;;;0.30;0.30;;;10.40;99.90;;;;;;5133650;27;20408;-77
2023/05/25 00:27:19;;;;;;;0.43;0.43;;;9.30;99.90;;;;;;5133241;27;20047;-76
2023/05/25 00:29:45;;;;;;;0.20;0.20;;;9.90;99.90;;;;;;5132689;27;20055;-75
2023/05/25 00:32:10;;;;;;;0.40;0.40;;;9.30;99.90;;;;;;5132771;27;20402;-76
2023/05/25 00:34:36;;;;;;;0.43;0.43;;;10.20;99.90;;;;;;5132903;27;20499;-76
2023/05/25 00:37:02;;;;;;;0.32;0.32;;;10.10;99.90;;;;;;5132819;27;20401;-75
2023/05/25 00:39:28;;;;;;;0.25;0.25;;;9.70;99.90;;;;;;5132949;27;20043;-75
2023/05/25 00:41:55;;;;;;;0.35;0.35;;;10.30;99.90;;;;;;5114509;27;20043;-74
2023/05/25 00:44:20;;;;;;;0.30;0.30;;;9.80;99.90;;;;;;5132881;27;20054;-75
2023/05/25 00:46:55;;;;;;;0.30;0.30;;;9.40;99.90;;;;;;5132820;28;20046;-75
2023/05/25 00:49:22;;;;;;;0.20;0.20;;;10.20;99.90;;;;;;5097284;28;20065;-75
2023/05/25 00:51:47;;;;;;;0.20;0.20;;;9.30;99.90;;;;;;5132947;28;20054;-75
2023/05/25 00:54:14;;;;;;;0.20;0.20;;;10.10;99.90;;;;;;5132868;28;20047;-74
2023/05/25 00:56:45;;;;;;;0.20;0.20;;;10.20;99.90;;;;;;5132563;28;20491;-74
2023/05/25 00:59:16;;;;;;;0.30;0.30;;;9.10;99.90;;;;;;5132656;28;20036;-75
2023/05/25 01:01:43;;;;;;;1.48;0.40;;;9.50;99.90;;;;;;5132598;28;20039;-74
2023/05/25 01:04:13;;;;;;;0.30;0.30;;;10.20;99.90;;;;;;5132529;28;20053;-74
2023/05/25 01:06:42;;;;;;;0.30;0.30;;;10.10;99.90;;;;;;5132511;28;20520;-75
2023/05/25 01:09:11;;;;;;;0.38;0.38;;;10.00;99.90;;;;;;5132537;28;20046;-74
2023/05/25 01:11:40;;;;;;;0.40;0.40;;;10.20;99.90;;;;;;5114058;28;20075;-74
2023/05/25 01:14:06;;;;;;;0.35;0.35;;;9.30;99.90;;;;;;5132500;28;20095;-74
2023/05/25 01:16:33;;;;;;;0.20;0.20;;;9.40;99.90;;;;;;5114022;28;20445;-74
2023/05/25 01:18:59;;;;;;;0.55;0.55;;;10.00;99.90;;;;;;5132354;28;20086;-74
2023/05/25 01:21:49;;;;;;;2.42;0.30;;;10.00;99.90;;;;;;5132603;28;20324;-74
2023/05/25 01:24:47;;;;;;;0.20;0.20;;;9.70;99.90;;;;;;5132399;28;20199;-74
2023/05/25 01:27:29;;;;;;;0.30;0.30;;;9.80;99.90;;;;;;5127329;28;20051;-73
2023/05/25 01:29:57;;;;;;;0.43;0.40;;;9.80;99.90;;;;;;5132212;28;20116;-74
2023/05/25 01:32:24;;;;;;;0.45;0.45;;;10.00;99.90;;;;;;5132426;28;20054;-74
2023/05/25 01:34:51;;;;;;;0.57;0.57;;;10.40;99.90;;;;;;5097310;28;20047;-74
2023/05/25 01:37:19;;;;;;;0.20;0.20;;;9.70;99.90;;;;;;5114079;28;20051;-75
2023/05/25 01:39:45;;;;;;;0.47;0.47;;;10.50;99.90;;;;;;5132161;28;20130;-74
2023/05/25 01:42:10;;;;;;;0.28;0.28;;;9.90;99.90;;;;;;5134403;27;20135;-73
2023/05/25 01:44:38;;;;;;;0.40;0.40;;;10.00;99.90;;;;;;5134201;27;20107;-75
2023/05/25 01:47:11;;;;;;;1.65;1.52;;;10.80;99.90;;;;;;5115479;28;20511;-73
2023/05/25 01:49:49;;;;;;;0.65;0.65;;;10.00;99.90;;;;;;5115404;28;20120;-72
2023/05/25 01:52:20;;;;;;;1.10;0.52;;;11.20;99.90;;;;;;5115301;28;20051;-73
2023/05/25 01:55:02;;;;;;;0.20;0.20;;;9.80;99.90;;;;;;5097246;28;20364;-73
2023/05/25 01:57:28;;;;;;;0.57;0.57;;;10.90;99.90;;;;;;5115249;28;20552;-75
2023/05/25 01:59:58;;;;;;;;;;;10.60;99.90;;;;;;5115595;28;20088;-73
2023/05/25 02:02:25;;;;;;;0.35;0.35;;;9.60;99.90;;;;;;5097067;28;19968;-71
2023/05/25 02:04:53;;;;;;;0.82;0.82;;;10.50;99.90;;;;;;5115344;28;20457;-73
2023/05/25 02:07:20;;;;;;;0.22;0.22;;;10.90;99.90;;;;;;5097030;28;20086;-73
2023/05/25 02:09:46;;;;;;;0.20;0.20;;;10.70;99.90;;;;;;5080084;28;20059;-74
2023/05/25 02:12:11;;;;;;;0.28;0.28;;;10.40;99.90;;;;;;5096881;28;20051;-74
2023/05/25 02:14:37;;;;;;;0.20;0.20;;;9.90;99.90;;;;;;5114911;28;20044;-73
2023/05/25 02:17:03;;;;;;;0.45;0.45;;;10.60;99.90;;;;;;5114781;28;20047;-73
2023/05/25 02:19:29;;;;;;;0.43;0.43;;;9.50;99.90;;;;;;5096956;28;20432;-74
2023/05/25 02:21:54;;;;;;;0.38;0.38;;;10.80;99.90;;;;;;5097261;28;20137;-73
2023/05/25 02:24:23;;;;;;;0.30;0.30;;;10.40;99.90;;;;;;5114819;28;20045;-73
2023/05/25 02:26:49;;;;;;;0.30;0.30;;;9.30;99.90;;;;;;5096815;28;20043;-74
2023/05/25 02:29:15;;;;;;;0.50;0.50;;;10.30;99.90;;;;;;5096171;28;20059;-73
2023/05/25 02:31:41;;;;;;;0.70;0.45;;;9.70;99.90;;;;;;5114490;28;20105;-74
2023/05/25 02:34:07;;;;;;;0.43;0.43;;;9.30;99.90;;;;;;5114760;28;20054;-73
2023/05/25 02:36:33;;;;;;;0.30;0.30;;;9.30;99.90;;;;;;5114476;28;20513;-74
2023/05/25 02:39:00;;;;;;;0.50;0.50;;;10.20;99.90;;;;;;5096268;28;20096;-73
2023/05/25 02:41:26;;;;;;;0.30;0.30;;;10.20;99.90;;;;;;5114630;28;20407;-74
2023/05/25 02:43:52;;;;;;;0.30;0.30;;;9.40;99.90;;;;;;5096435;28;20039;-74
2023/05/25 02:46:18;;;;;;;0.30;0.30;;;9.70;99.90;;;;;;5114296;28;20083;-73
2023/05/25 02:48:45;;;;;;;0.30;0.30;;;10.40;99.90;;;;;;5096153;28;20056;-74
2023/05/25 02:51:11;;;;;;;0.25;0.25;;;9.10;99.90;;;;;;5114400;28;20051;-74
2023/05/25 02:53:37;;;;;;;0.20;0.20;;;8.70;99.90;;;;;;5095665;28;20043;-74
2023/05/25 02:56:04;;;;;;;0.30;0.30;;;9.30;99.90;;;;;;5114196;28;20083;-73
2023/05/25 02:58:30;;;;;;;0.30;0.30;;;10.20;99.90;;;;;;5114113;28;20091;-74
2023/05/25 03:00:58;;;;;;;;;;;9.10;99.90;;;;;;5114426;28;20036;-74
2023/05/25 03:03:25;;;;;;;0.40;0.40;;;8.90;99.90;;;;;;5096148;28;19926;-74
2023/05/25 03:05:51;;;;;;;0.35;0.35;;;9.20;99.90;;;;;;5114051;28;20134;-74
2023/05/25 03:08:17;;;;;;;0.65;0.55;;;8.80;99.90;;;;;;5095599;28;20459;-74
2023/05/25 03:10:43;;;;;;;0.30;0.30;;;10.00;99.90;;;;;;5113901;28;20047;-75
2023/05/25 03:13:08;;;;;;;3.22;0.68;;;10.10;99.90;;;;;;5095777;28;20055;-74
2023/05/25 03:15:34;;;;;;;0.30;0.30;;;9.40;99.90;;;;;;5095565;28;20128;-74
2023/05/25 03:18:00;;;;;;;0.30;0.30;;;9.00;99.90;;;;;;5113850;28;20083;-74
2023/05/25 03:20:27;;;;;;;0.30;0.30;;;10.00;99.90;;;;;;5113733;28;20051;-72
2023/05/25 03:22:53;;;;;;;1.65;0.60;;;9.00;99.90;;;;;;5113690;28;20087;-73
2023/05/25 03:25:19;;;;;;;0.30;0.30;;;9.10;99.90;;;;;;5095317;28;20096;-73
2023/05/25 03:27:44;;;;;;;0.35;0.35;;;9.00;99.90;;;;;;5113413;28;20044;-73
2023/05/25 03:30:11;;;;;;;0.30;0.30;;;9.70;99.90;;;;;;5113628;28;20550;-73
2023/05/25 03:32:36;;;;;;;;;;;9.00;99.90;;;;;;5095528;28;20127;-73
2023/05/25 03:35:04;;;;;;;0.38;0.38;;;8.60;99.90;;;;;;5095370;28;20015;-74
2023/05/25 03:37:30;;;;;;;0.20;0.20;;;9.70;99.90;;;;;;5113388;28;20500;-72
2023/05/25 03:39:55;;;;;;;0.40;0.40;;;10.20;99.90;;;;;;5113341;28;20095;-72
2023/05/25 03:42:21;;;;;;;0.40;0.40;;;10.20;99.90;;;;;;5095119;28;20407;-73
2023/05/25 03:44:47;;;;;;;0.93;0.90;;;9.20;99.90;;;;;;5113097;28;20506;-73
2023/05/25 03:47:12;;;;;;;0.45;0.45;;;10.40;99.90;;;;;;5113257;28;20048;-72
2023/05/25 03:49:38;;;;;;;2.47;0.63;;;9.50;99.90;;;;;;5113178;28;20108;-72
2023/05/25 03:52:05;;;;;;;0.60;0.60;;;9.70;99.90;;;;;;5113154;28;20609;-71
2023/05/25 03:54:31;;;;;;;0.77;0.63;;;10.90;99.90;;;;;;5113007;28;20175;-73
2023/05/25 03:56:58;;;;;;;0.52;0.52;;;11.10;99.90;;;;;;5112920;28;20048;-70
2023/05/25 03:59:24;;;;;;;0.40;0.40;;;11.00;99.90;;;;;;5112781;28;20083;-72
2023/05/25 04:01:50;;;;;;;0.80;0.80;;;9.90;99.90;;;;;;5112944;28;20048;-73
2023/05/25 04:04:16;;;;;;;1.27;0.57;;;9.90;99.90;;;;;;5094823;28;20059;-72
2023/05/25 04:06:44;;;;;;;0.40;0.40;;;9.90;99.90;;;;;;5112185;28;20099;-73
2023/05/25 04:09:11;;;;;;;1.00;0.63;;;9.90;99.90;;;;;;5112650;28;20111;-74
2023/05/25 04:11:36;;;;;;;0.77;0.75;;;11.30;99.90;;;;;;5094628;28;20040;-73
2023/05/25 04:14:02;;;;;;;0.80;0.80;;;11.10;99.90;;;;;;5094771;28;20062;-72
2023/05/25 04:16:28;;;;;;;0.82;0.63;;;9.80;99.90;;;;;;5095053;28;20471;-72
2023/05/25 04:18:55;;;;;;;3.20;0.75;;;11.20;99.90;;;;;;5112704;28;20040;-72
2023/05/25 04:21:20;;;;;;;;;;;10.10;99.90;;;;;;5112975;28;20044;-72
2023/05/25 04:23:46;;;;;;;0.32;0.32;;;10.40;99.90;;;;;;5112530;28;20337;-72
2023/05/25 04:26:14;;;;;;;0.82;0.82;;;9.90;99.90;;;;;;5112323;28;20051;-71
2023/05/25 04:28:40;;;;;;;0.47;0.47;;;10.20;99.90;;;;;;5094095;28;20040;-72
2023/05/25 04:31:06;;;;;;;0.68;0.68;;;11.10;99.90;;;;;;5094547;28;20069;-73
2023/05/25 04:33:33;;;;;;;0.30;0.30;;;11.40;99.90;;;;;;5112533;28;20081;-72
2023/05/25 04:35:59;;;;;;;0.30;0.30;;;11.60;99.90;;;;;;5112301;28;20096;-73
2023/05/25 04:38:25;;;;;;;0.20;0.20;;;11.40;99.90;;;;;;5112342;28;20040;-73
2023/05/25 04:40:52;;;;;;;0.20;0.20;;;10.80;99.90;;;;;;5094226;28;20506;-72
2023/05/25 04:43:19;;;;;;;0.40;0.40;;;11.60;99.90;;;;;;5112191;28;20107;-73
2023/05/25 04:45:45;;;;;;;0.20;0.20;;;10.00;99.90;;;;;;5112342;28;20050;-72
2023/05/25 04:48:12;;;;;;;0.30;0.30;;;11.80;99.90;;;;;;5094118;28;20047;-72
2023/05/25 04:50:41;;;;;;;0.40;0.40;;;11.90;99.90;;;;;;5112207;28;20062;-75
2023/05/25 04:53:07;;;;;;;1.17;0.82;;;10.90;99.90;;;;;;5112099;28;20044;-72
2023/05/25 04:55:33;;;;;;;0.40;0.40;;;12.00;99.90;;;;;;5112036;28;20066;-71
2023/05/25 04:57:59;;;;;;;0.40;0.40;;;12.10;99.90;;;;;;5111928;28;20036;-71
2023/05/25 05:00:25;;;;;;;1.10;1.10;;;10.90;99.90;;;;;;5112219;28;20056;-72
2023/05/25 05:02:51;;;;;;;0.70;0.63;;;10.70;99.90;;;;;;5112157;28;20048;-71
2023/05/25 05:05:17;;;;;;;0.70;0.47;;;12.20;99.90;;;;;;5112045;28;20048;-71
2023/05/25 05:07:43;;;;;;;0.70;0.70;;;11.20;99.90;;;;;;5111883;28;20070;-71
2023/05/25 05:10:09;;;;;;;0.32;0.32;;;11.40;99.90;;;;;;5111961;28;20495;-70
2023/05/25 05:12:34;;;;;;;;;;;12.60;99.90;;;;;;5112599;28;20054;-71
2023/05/25 05:15:00;;;;;;;1.15;1.15;;;12.50;99.90;;;;;;5111943;28;19920;-69
2023/05/25 05:17:27;;;;;;;0.40;0.40;;;12.00;99.90;;;;;;5096383;28;20050;-72
2023/05/25 05:19:53;;;;;;;0.50;0.50;;;12.40;99.90;;;;;;5098014;28;20047;-70
2023/05/25 05:22:19;;;;;;;0.40;0.40;;;11.80;99.90;;;;;;5116061;28;20112;-71
2023/05/25 05:24:44;;;;;;;6.93;0.57;;;12.30;99.90;;;;;;5115926;28;20067;-69
2023/05/25 05:27:13;;;;;;;0.30;0.30;;;12.60;99.90;;;;;;5116039;28;20140;-69
2023/05/25 05:29:39;;;;;;;0.43;0.43;;;12.00;99.90;;;;;;5115716;28;20059;-70
2023/05/25 05:32:06;;;;;;;0.32;0.32;;;12.00;99.90;;;;;;5115913;28;20066;-69
2023/05/25 05:34:32;;;;;;;13.02;0.88;;;11.50;99.90;;;;;;5115738;28;20171;-69
2023/05/25 05:36:59;;;;;;;0.60;0.60;;;12.30;99.90;;;;;;5115712;28;20504;-66
2023/05/25 05:39:25;;;;;;;0.75;0.75;;;11.40;99.90;;;;;;5115467;28;20411;-71
2023/05/25 05:41:51;;;;;;;1.00;0.95;;;12.60;99.90;;;;;;5115770;28;20047;-70
2023/05/25 05:44:17;;;;;;;0.22;0.22;;;12.00;99.90;;;;;;5115720;28;20047;-70
2023/05/25 05:46:43;;;;;;;0.50;0.50;;;12.50;99.90;;;;;;5115615;28;20054;-70
2023/05/25 05:49:08;;;;;;;0.40;0.40;;;12.70;99.90;;;;;;5096905;28;20043;-70
2023/05/25 05:51:34;;;;;;;0.50;0.50;;;12.30;99.90;;;;;;5115332;28;20126;-68
2023/05/25 05:54:00;;;;;;;;;;;12.30;99.90;;;;;;5115713;28;20122;-69
2023/05/25 05:56:26;;;;;;;0.30;0.30;;;12.20;99.90;;;;;;5115498;28;20427;-67
2023/05/25 05:58:53;;;;;;;0.40;0.40;;;12.00;99.90;;;;;;5115471;28;20047;-67
2023/05/25 06:01:19;;;;;;;0.80;0.80;;;12.80;99.90;;;;;;5122355;27;20055;-70
2023/05/25 06:03:44;;;;;;;9.80;1.33;;;12.30;99.90;;;;;;5134473;27;20042;-69
2023/05/25 06:06:10;;;;;;;0.73;0.73;;;12.90;99.90;;;;;;5134543;27;20050;-68
2023/05/25 06:08:36;;;;;;;1.73;0.85;;;13.10;99.90;;;;;;5134401;27;20046;-71
2023/05/25 06:11:02;;;;;;;0.20;0.20;;;12.90;99.90;;;;;;5117253;27;20402;-67
2023/05/25 06:13:27;;;;;;;0.50;0.50;;;12.80;99.90;;;;;;5135246;27;20486;-66
2023/05/25 06:15:53;;;;;;;0.40;0.40;;;12.30;99.90;;;;;;5134342;27;20487;-70
2023/05/25 06:18:19;;;;;;;0.20;0.20;;;12.70;99.90;;;;;;5134872;27;20453;-68
2023/05/25 06:20:44;;;;;;;0.50;0.50;;;12.70;99.90;;;;;;5134685;27;20043;-67
2023/05/25 06:23:12;;;;;;;6.05;0.82;;;12.60;99.90;;;;;;5133816;27;20402;-68
2023/05/25 06:25:38;;;;;;;3.20;0.68;;;12.60;99.90;;;;;;5135068;27;20090;-69
2023/05/25 06:28:04;;;;;;;0.25;0.25;;;13.20;99.90;;;;;;5133787;27;20087;-69
2023/05/25 06:30:30;;;;;;;0.40;0.40;;;13.00;99.90;;;;;;5115269;27;20117;-68
2023/05/25 06:32:56;;;;;;;5.47;0.90;;;12.70;99.90;;;;;;5134595;27;20482;-69
2023/05/25 06:35:22;;;;;;;2.58;0.70;;;12.80;99.90;;;;;;5134524;27;20043;-66
2023/05/25 06:37:48;;;;;;;1.88;1.40;;;13.20;99.90;;;;;;5115828;27;20494;-70
2023/05/25 06:40:15;;;;;;;0.57;0.57;;;13.10;99.90;;;;;;5134679;27;20055;-69
2023/05/25 06:42:41;;;;;;;0.38;0.38;;;13.10;99.90;;;;;;5134532;27;20043;-67
2023/05/25 06:45:07;;;;;;;2.28;0.47;;;13.80;99.90;;;;;;5133732;27;20547;-66
2023/05/25 06:47:33;;;;;;;0.77;0.77;;;13.20;99.90;;;;;;5116104;27;20407;-68
2023/05/25 06:49:59;;;;;;;0.35;0.35;;;13.20;99.90;;;;;;5134227;27;20047;-69
2023/05/25 06:52:28;;;;;;;0.65;0.50;;;13.20;99.90;;;;;;5133569;27;20418;-73
2023/05/25 06:54:55;;;;;;;0.30;0.30;;;13.30;99.90;;;;;;5134387;27;20070;-71
2023/05/25 06:57:23;;;;;;;0.63;0.63;;;13.70;99.90;;;;;;5134342;27;20039;-71
2023/05/25 06:59:49;;;;;;;0.30;0.30;;;13.50;99.90;;;;;;5133404;27;20035;-72
2023/05/25 07:02:15;;;;;;;5.63;2.63;;;13.80;99.90;;;;;;5115880;27;20065;-73
2023/05/25 07:04:41;;;;;;;5.38;0.73;;;13.40;99.90;;;;;;5134054;27;20102;-72
2023/05/25 07:07:08;;;;;;;0.40;0.40;;;13.60;99.90;;;;;;5133286;27;20495;-72
2023/05/25 07:09:34;;;;;;;1.40;0.43;;;14.00;99.90;;;;;;5134061;27;20048;-70
2023/05/25 07:12:00;;;;;;;0.45;0.45;;;13.90;99.90;;;;;;5133976;27;20567;-72
2023/05/25 07:14:25;;;;;;;0.68;0.68;;;13.90;99.90;;;;;;5132827;27;20046;-70
2023/05/25 07:16:51;;;;;;;0.70;0.70;;;13.60;99.90;;;;;;5133843;27;20394;-77
2023/05/25 07:19:17;;;;;;;3.63;1.23;;;13.70;99.90;;;;;;5134076;27;20039;-77
2023/05/25 07:21:42;;;;;;;;;;;13.80;99.90;;;;;;5134524;27;20043;-71
2023/05/25 07:24:08;;;;;;;2.17;2.08;;;13.90;99.90;;;;;;5123276;27;19945;-72
2023/05/25 07:26:35;;;;;;;0.20;0.20;;;13.90;99.90;;;;;;5132916;27;20065;-67
2023/05/25 07:29:01;;;;;;;0.40;0.40;;;13.70;99.90;;;;;;5133565;27;20067;-68
2023/05/25 07:31:26;;;;;;;0.40;0.40;;;13.60;99.90;;;;;;5133445;27;20061;-68
2023/05/25 07:33:54;;;;;;;0.20;0.20;;;13.70;99.90;;;;;;5133761;27;20043;-68
2023/05/25 07:36:20;;;;;;;0.80;0.80;;;13.80;99.90;;;;;;5133246;27;20052;-72
2023/05/25 07:38:46;;;;;;;0.90;0.70;;;13.60;99.90;;;;;;5133807;27;20514;-66
2023/05/25 07:41:12;;;;;;;1.15;1.15;;;14.10;99.90;;;;;;5132802;27;20102;-65
2023/05/25 07:43:41;;;;;;;0.32;0.32;;;13.90;99.90;;;;;;5133452;27;20055;-71
2023/05/25 07:46:06;;;;;;;0.47;0.47;;;13.60;99.90;;;;;;5133235;27;20395;-73
2023/05/25 07:48:32;;;;;;;2.22;0.75;;;13.60;99.90;;;;;;5114995;27;20047;-66
2023/05/25 07:50:58;;;;;;;;;;;13.80;99.90;;;;;;5133698;27;20135;-67
2023/05/25 07:53:23;;;;;;;4.47;1.33;;;13.40;99.90;;;;;;5132935;27;20063;-72
2023/05/25 07:55:49;;;;;;;0.17;0.17;;;13.80;99.90;;;;;;5133031;27;20058;-70
2023/05/25 07:58:15;;;;;;;1.48;1.40;;;13.70;99.90;;;;;;5132603;27;20046;-67
2023/05/25 08:00:42;;;;;;;1.02;0.85;;;14.20;99.90;;;;;;5132667;27;20505;-66
2023/05/25 08:03:08;;;;;;;0.95;0.95;;;14.10;99.90;;;;;;5132875;27;20043;-72
2023/05/25 08:05:34;;;;;;;0.55;0.55;;;14.00;99.90;;;;;;5133001;27;20054;-68
2023/05/25 08:07:59;;;;;;;;;;;14.30;99.90;;;;;;5133647;27;20046;-69
2023/05/25 08:10:30;;;;;;;0.35;0.32;;;14.30;99.90;;;;;;5132845;27;19958;-69
2023/05/25 08:12:56;;;;;;;0.50;0.50;;;14.50;99.90;;;;;;5114728;27;20415;-68
2023/05/25 08:15:21;;;;;;;;;;;14.60;99.90;;;;;;5133290;27;20051;-72
2023/05/25 08:17:49;;;;;;;0.73;0.73;;;14.20;99.90;;;;;;5114266;27;19919;-65
2023/05/25 08:20:16;;;;;;;2.72;0.47;;;14.40;99.90;;;;;;5132780;27;20047;-71
2023/05/25 08:22:42;;;;;;;0.55;0.32;;;14.20;99.90;;;;;;5114492;27;20086;-70
2023/05/25 08:25:08;;;;;;;0.98;0.57;;;14.30;99.90;;;;;;5132643;27;20093;-68
2023/05/25 08:27:34;;;;;;;0.65;0.65;;;14.20;99.90;;;;;;5132393;27;20070;-69
2023/05/25 08:30:00;;;;;;;6.22;0.50;;;14.00;99.90;;;;;;5132515;27;20059;-69
2023/05/25 08:32:26;;;;;;;0.25;0.25;;;13.50;99.90;;;;;;5132389;27;20054;-71
2023/05/25 08:34:52;;;;;;;6.50;2.00;;;13.50;99.90;;;;;;5132470;27;20050;-65
2023/05/25 08:37:19;;;;;;;7.15;1.15;;;13.80;99.90;;;;;;5132594;27;20035;-65
2023/05/25 08:39:45;;;;;;;0.45;0.32;;;13.90;99.90;;;;;;5132510;27;20058;-64
2023/05/25 08:42:11;;;;;;;0.40;0.40;;;14.00;99.90;;;;;;5132396;27;20043;-65
2023/05/25 08:44:37;;;;;;;;;;;14.40;99.90;;;;;;5132999;27;20039;-64
2023/05/25 08:47:07;;;;;;;1.00;0.55;;;14.20;99.90;;;;;;5120904;27;19926;-64
2023/05/25 08:49:40;;;;;;;0.30;0.30;;;14.50;99.90;;;;;;5093528;28;20475;-64
2023/05/25 08:52:12;;;;;;;1.17;1.00;;;14.20;99.90;;;;;;5111356;28;20854;-64
2023/05/25 08:54:40;;;;;;;2.17;2.00;;;14.40;99.90;;;;;;5111771;28;20051;-64
2023/05/25 08:57:33;;;;;;;0.40;0.40;;;14.20;99.90;;;;;;5111966;28;20506;-65
2023/05/25 09:00:02;;;;;;;0.65;0.65;;;14.60;99.90;;;;;;5117802;28;20036;-66
2023/05/25 09:02:37;;;;;;;0.40;0.40;;;14.20;99.90;;;;;;5124530;28;20055;-71
2023/05/25 09:05:04;;;;;;;3.85;1.23;;;14.60;99.90;;;;;;5093765;28;20047;-66
2023/05/25 09:07:30;;;;;;;0.60;0.43;;;14.90;99.90;;;;;;5111706;28;20526;-66
2023/05/25 09:09:57;;;;;;;0.30;0.30;;;14.80;99.90;;;;;;5111330;28;20139;-70
2023/05/25 09:12:23;;;;;;;12.18;1.63;;;15.10;99.90;;;;;;5111550;28;20052;-67
2023/05/25 09:14:52;;;;;;;1.02;0.73;;;15.60;99.90;;;;;;5093539;28;20083;-65
2023/05/25 09:17:18;;;;;;;1.23;0.30;;;15.40;99.90;;;;;;5110997;28;20073;-71
2023/05/25 09:19:46;;;;;;;0.10;0.10;;;15.60;99.90;;;;;;5111539;28;20479;-67
2023/05/25 09:22:12;;;;;;;1.92;0.93;;;15.70;99.90;;;;;;5127137;28;20407;-67
2023/05/25 09:24:40;;;;;;;;;;;15.70;99.90;;;;;;5110970;28;20047;-71
2023/05/25 09:27:16;;;;;;;1.90;0.95;;;16.00;99.90;;;;;;5110420;28;19977;-69
2023/05/25 09:29:42;;;;;;;0.50;0.50;;;15.60;99.90;;;;;;5092616;28;20055;-74
2023/05/25 09:32:07;;;;;;;;;;;15.80;99.90;;;;;;5111417;28;20126;-68
2023/05/25 09:34:33;;;;;;;0.40;0.40;;;15.40;99.90;;;;;;5110200;28;19923;-67
2023/05/25 09:36:59;;;;;;;;;;;15.20;99.90;;;;;;5111225;28;20100;-67
2023/05/25 09:39:25;;;;;;;0.40;0.40;;;15.10;99.90;;;;;;5110138;28;19939;-69
2023/05/25 09:41:51;;;;;;;;;;;15.10;99.90;;;;;;5110944;28;20044;-66
2023/05/25 09:44:17;;;;;;;0.82;0.82;;;14.90;99.90;;;;;;5110931;28;19920;-64
2023/05/25 09:46:43;;;;;;;;;;;14.60;99.90;;;;;;5111245;28;20101;-71
2023/05/25 09:49:10;;;;;;;0.25;0.25;;;14.10;99.90;;;;;;5109712;28;19924;-74
2023/05/25 09:51:36;;;;;;;0.25;0.25;;;14.70;99.90;;;;;;5110044;28;20054;-71
2023/05/25 09:54:07;;;;;;;;;;;14.50;99.90;;;;;;5094482;28;20062;-71
2023/05/25 09:56:33;;;;;;;1.13;0.75;;;14.80;99.90;;;;;;5103709;28;20002;-67
2023/05/25 09:59:00;;;;;;;8.73;0.82;;;14.90;99.90;;;;;;5122542;28;20143;-67
2023/05/25 10:01:26;;;;;;;1.60;1.13;;;15.20;99.90;;;;;;5110935;28;20479;-67
2023/05/25 10:03:55;;;;;;;;;;;15.30;99.90;;;;;;5112295;28;20047;-67
2023/05/25 10:06:22;;;;;;;1.75;1.20;;;15.70;99.90;;;;;;5096491;28;20022;-67
2023/05/25 10:08:48;;;;;;;4.22;1.15;;;15.30;99.90;;;;;;5114540;28;20122;-69
2023/05/25 10:11:15;;;;;;;4.47;2.20;;;15.50;99.90;;;;;;5114195;28;20044;-66
2023/05/25 10:13:45;;;;;;;0.20;0.20;;;15.30;99.90;;;;;;5114693;27;20091;-67
2023/05/25 10:16:16;;;;;;;1.45;0.47;;;14.90;99.90;;;;;;5114517;28;20055;-70
2023/05/25 10:19:02;;;;;;;0.20;0.20;;;15.10;99.90;;;;;;5113671;27;20051;-70
2023/05/25 10:21:30;;;;;;;0.20;0.20;;;15.20;99.90;;;;;;5114383;28;20043;-67
2023/05/25 10:24:33;;;;;;;3.10;0.50;;;16.10;99.90;;;;;;5114426;28;20476;-69
2023/05/25 10:27:01;;;;;;;0.52;0.52;;;16.20;99.90;;;;;;5073470;27;20173;-68
2023/05/25 10:29:28;;;;;;;3.20;0.82;;;16.20;99.90;;;;;;5113896;28;20475;-66
2023/05/25 10:31:57;;;;;;;0.20;0.20;;;16.00;99.90;;;;;;5114345;28;20466;-65
2023/05/25 10:34:22;;;;;;;3.10;0.85;;;15.90;99.90;;;;;;5095275;28;20127;-65
2023/05/25 10:36:49;;;;;;;;;;;15.60;99.90;;;;;;5114440;28;20479;-67
2023/05/25 10:39:19;;;;;;;1.55;1.45;;;16.10;99.90;;;;;;5113936;28;19924;-66
2023/05/25 10:41:45;;;;;;;0.70;0.43;;;15.80;99.90;;;;;;5113504;28;20043;-69
2023/05/25 10:44:12;;;;;;;0.68;0.43;;;15.90;99.90;;;;;;5099531;27;20046;-69
2023/05/25 10:46:38;;;;;;;1.10;0.80;;;16.00;99.90;;;;;;5115940;27;20153;-69
2023/05/25 10:49:04;;;;;;;;;;;16.20;99.90;;;;;;5117207;27;20122;-71
2023/05/25 10:51:40;;;;;;;2.38;0.47;;;15.70;99.90;;;;;;5115167;27;19920;-67
2023/05/25 10:54:06;;;;;;;0.65;0.65;;;15.40;99.90;;;;;;5113520;27;20097;-69
2023/05/25 10:56:32;;;;;;;0.52;0.52;;;15.70;99.90;;;;;;5113333;28;20099;-69
2023/05/25 10:58:58;;;;;;;;;;;15.20;99.90;;;;;;5095268;28;20512;-67
2023/05/25 11:01:24;;;;;;;1.30;0.32;;;15.50;99.90;;;;;;5113742;28;20048;-67
2023/05/25 11:03:56;;;;;;;2.17;0.77;;;15.70;99.90;;;;;;5113600;27;20056;-66
2023/05/25 11:06:45;;;;;;;1.27;0.57;;;16.00;99.90;;;;;;5113124;28;20047;-70
2023/05/25 11:09:34;;;;;;;0.40;0.40;;;15.80;99.90;;;;;;5112928;28;20051;-67
2023/05/25 11:12:02;;;;;;;0.25;0.25;;;15.80;99.90;;;;;;5113494;28;20048;-69
2023/05/25 11:14:30;;;;;;;0.98;0.98;;;15.90;99.90;;;;;;5094136;28;20055;-67
2023/05/25 11:17:14;;;;;;;0.95;0.95;;;15.90;99.90;;;;;;5095095;28;20135;-71
2023/05/25 11:19:46;;;;;;;0.77;0.75;;;15.80;99.90;;;;;;5112000;28;20039;-69
2023/05/25 11:22:12;;;;;;;6.32;2.88;;;15.90;99.90;;;;;;5095344;28;20056;-70
2023/05/25 11:24:38;;;;;;;1.75;0.90;;;15.80;99.90;;;;;;5113652;28;20043;-66
2023/05/25 11:27:04;;;;;;;;;;;16.00;99.90;;;;;;5114237;28;20044;-68
2023/05/25 11:29:31;;;;;;;0.77;0.50;;;16.10;99.90;;;;;;5113531;28;19976;-67
2023/05/25 11:31:58;;;;;;;0.52;0.43;;;16.70;99.90;;;;;;5095452;28;20077;-66
2023/05/25 11:34:27;;;;;;;1.95;1.02;;;16.40;99.90;;;;;;5113726;28;20051;-69
2023/05/25 11:37:01;;;;;;;0.50;0.50;;;16.60;99.90;;;;;;5095314;28;20492;-68
2023/05/25 11:39:28;;;;;;;5.40;2.92;;;15.50;99.90;;;;;;5095431;28;20132;-66
2023/05/25 11:41:55;;;;;;;1.33;0.90;;;15.50;99.90;;;;;;5113425;28;20051;-69
2023/05/25 11:44:28;;;;;;;1.00;0.63;;;15.70;99.90;;;;;;5113281;28;20181;-68
2023/05/25 11:47:00;;;;;;;0.28;0.28;;;15.90;99.90;;;;;;5113520;28;20116;-68
2023/05/25 11:49:26;;;;;;;1.98;1.52;;;15.10;99.90;;;;;;5095866;28;20040;-71
2023/05/25 11:51:56;;;;;;;1.88;1.05;;;15.30;99.90;;;;;;5113187;28;20044;-71
2023/05/25 11:54:27;;;;;;;0.57;0.55;;;15.70;99.90;;;;;;5113109;28;20143;-71
2023/05/25 11:56:57;;;;;;;0.47;0.47;;;16.00;99.90;;;;;;5113099;28;20051;-71
2023/05/25 11:59:24;;;;;;;1.02;0.85;;;15.70;99.90;;;;;;5113438;28;20039;-71
2023/05/25 12:02:00;;;;;;;1.70;0.93;;;15.90;99.90;;;;;;5095258;28;20391;-69
2023/05/25 12:04:27;;;;;;;0.77;0.77;;;15.90;99.90;;;;;;5113087;28;20043;-68
2023/05/25 12:07:04;;;;;;;1.02;0.77;;;15.90;99.90;;;;;;5112995;28;20044;-69
2023/05/25 12:09:30;;;;;;;1.05;1.05;;;16.10;99.90;;;;;;5112803;28;20040;-67
2023/05/25 12:11:56;;;;;;;0.47;0.40;;;16.00;99.90;;;;;;5113012;28;20043;-68
2023/05/25 12:14:22;;;;;;;1.50;1.10;;;16.30;99.90;;;;;;5094921;28;20047;-70
2023/05/25 12:16:49;;;;;;;1.60;1.13;;;15.90;99.90;;;;;;5097332;27;20069;-67
2023/05/25 12:19:16;;;;;;;0.43;0.43;;;15.60;99.90;;;;;;5112655;28;20050;-69
2023/05/25 12:21:42;;;;;;;0.63;0.63;;;15.50;99.90;;;;;;5115238;27;20552;-70
2023/05/25 12:24:11;;;;;;;1.00;1.00;;;16.10;99.90;;;;;;5111687;28;20059;-69
2023/05/25 12:26:56;;;;;;;0.88;0.88;;;15.50;99.90;;;;;;5111417;28;20051;-68
2023/05/25 12:29:23;;;;;;;1.30;0.77;;;15.70;99.90;;;;;;5112385;28;20059;-68
2023/05/25 12:31:49;;;;;;;0.30;0.30;;;15.90;99.90;;;;;;5094575;28;20067;-67
2023/05/25 12:34:16;;;;;;;0.73;0.73;;;14.00;99.90;;;;;;5094415;28;20399;-67
2023/05/25 12:36:52;;;;;;;16.17;2.15;;;15.90;99.90;;;;;;5112445;28;20059;-69
2023/05/25 12:39:30;;;;;;;1.10;0.75;;;16.20;99.90;;;;;;5112559;28;20047;-68
2023/05/25 12:42:01;;;;;;;0.63;0.63;;;16.00;99.90;;;;;;5112503;28;20051;-67
2023/05/25 12:44:34;;;;;;;3.85;1.02;;;16.10;99.90;;;;;;5112405;28;20051;-67
2023/05/25 12:47:22;;;;;;;6.03;1.45;;;15.60;99.90;;;;;;5112231;28;20054;-68
2023/05/25 12:49:52;;;;;;;0.32;0.32;;;15.30;99.90;;;;;;5112339;28;20051;-71
2023/05/25 12:52:32;;;;;;;3.95;0.75;;;15.60;99.90;;;;;;5112127;28;20495;-68
2023/05/25 12:54:58;;;;;;;0.75;0.75;;;15.80;99.90;;;;;;5094324;28;20048;-69
2023/05/25 12:57:36;;;;;;;1.88;1.70;;;15.90;99.90;;;;;;5112105;28;20047;-68